Time;durP1;ratioP1;P1;durP2;ratioP2;P2;SDS_P1;SDS_P2;PMS_P1;PMS_P2;Temp;Humidity;BMP_temperature;BMP_pressure;BME280_temperature;BME280_humidity;BME280_pressure;Samples;Min_cycle;Max_cycle;Signal;HPM_P1;HPM_P2
2023/10/28 00:00:54;;;;;;;3.42;2.13;;;5.90;99.90;;;;;;5032993;28;20453;-75
2023/10/28 00:03:20;;;;;;;3.58;2.17;;;6.00;99.90;;;;;;5032878;28;20112;-75
2023/10/28 00:05:48;;;;;;;3.38;2.05;;;6.00;99.90;;;;;;5034375;28;20026;-75
2023/10/28 00:08:14;;;;;;;3.25;2.10;;;5.90;99.90;;;;;;5033991;28;20540;-75
2023/10/28 00:10:41;;;;;;;4.55;2.25;;;6.00;99.90;;;;;;5033911;28;20053;-75
2023/10/28 00:13:08;;;;;;;4.47;2.55;;;6.00;99.90;;;;;;5033986;28;20087;-75
2023/10/28 00:15:35;;;;;;;4.32;2.58;;;6.00;99.90;;;;;;5033477;28;20398;-75
2023/10/28 00:18:02;;;;;;;3.70;2.33;;;6.10;99.90;;;;;;5034130;28;20028;-75
2023/10/28 00:20:29;;;;;;;2.92;2.13;;;6.10;99.90;;;;;;5034436;28;20022;-76
2023/10/28 00:22:55;;;;;;;4.72;2.03;;;6.10;99.90;;;;;;5032770;28;20405;-76
2023/10/28 00:25:29;;;;;;;10.05;2.40;;;6.20;99.90;;;;;;5033965;28;20037;-76
2023/10/28 00:27:55;;;;;;;3.45;2.30;;;6.20;99.90;;;;;;5034347;28;20022;-76
2023/10/28 00:30:24;;;;;;;3.47;2.38;;;6.20;99.90;;;;;;5033817;28;20061;-76
2023/10/28 00:32:58;;;;;;;6.30;2.70;;;6.20;99.90;;;;;;5033879;28;20021;-76
2023/10/28 00:35:24;;;;;;;4.78;2.88;;;6.20;99.90;;;;;;5034003;28;20095;-76
2023/10/28 00:37:50;;;;;;;7.35;3.05;;;6.20;99.90;;;;;;5033921;28;20053;-76
2023/10/28 00:40:17;;;;;;;5.43;2.88;;;6.20;99.90;;;;;;5032669;28;20418;-76
2023/10/28 00:42:45;;;;;;;4.95;2.80;;;6.20;99.90;;;;;;5016276;28;20034;-76
2023/10/28 00:45:13;;;;;;;4.75;3.05;;;6.20;99.90;;;;;;5033757;28;20107;-76
2023/10/28 00:47:42;;;;;;;4.72;2.78;;;6.20;99.90;;;;;;5032252;28;20029;-76
2023/10/28 00:50:12;;;;;;;3.83;2.55;;;6.30;99.90;;;;;;5033809;28;20056;-76
2023/10/28 00:52:45;;;;;;;4.10;2.60;;;6.30;99.90;;;;;;5033492;28;20030;-76
2023/10/28 00:55:12;;;;;;;4.28;2.67;;;6.30;99.90;;;;;;5033522;28;20084;-76
2023/10/28 00:57:42;;;;;;;3.92;2.33;;;6.30;99.90;;;;;;5015526;28;20124;-76
2023/10/28 01:00:10;;;;;;;4.45;2.45;;;6.30;99.90;;;;;;5032351;28;20029;-76
2023/10/28 01:02:38;;;;;;;3.85;2.08;;;6.30;99.90;;;;;;5032290;28;20026;-76
2023/10/28 01:05:06;;;;;;;3.38;2.13;;;6.30;99.90;;;;;;5032233;28;20025;-76
2023/10/28 01:07:32;;;;;;;3.83;2.38;;;6.30;99.90;;;;;;5032116;28;20616;-76
2023/10/28 01:09:58;;;;;;;3.95;2.28;;;6.30;99.90;;;;;;5032113;28;20041;-76
2023/10/28 01:12:26;;;;;;;3.80;2.30;;;6.40;99.90;;;;;;5033451;28;20030;-76
2023/10/28 01:14:52;;;;;;;5.38;2.80;;;6.40;99.90;;;;;;5032352;28;20053;-76
2023/10/28 01:17:21;;;;;;;3.55;2.35;;;6.40;99.90;;;;;;5033542;28;20025;-76
2023/10/28 01:19:47;;;;;;;4.90;2.95;;;6.40;99.90;;;;;;5033587;28;20052;-76
2023/10/28 01:22:13;;;;;;;3.97;2.30;;;6.40;99.90;;;;;;5033597;28;20026;-76
2023/10/28 01:24:38;;;;;;;4.47;2.30;;;6.40;99.90;;;;;;5032054;28;20482;-76
2023/10/28 01:27:04;;;;;;;3.72;2.42;;;6.40;99.90;;;;;;5034051;28;20049;-76
2023/10/28 01:29:30;;;;;;;4.55;2.30;;;6.40;99.90;;;;;;5035603;28;20033;-76
2023/10/28 01:31:55;;;;;;;3.47;2.35;;;6.40;99.90;;;;;;5035741;28;20029;-76
2023/10/28 01:34:22;;;;;;;2.90;2.00;;;6.40;99.90;;;;;;5037279;28;20036;-76
2023/10/28 01:36:49;;;;;;;4.93;2.30;;;6.40;99.90;;;;;;5037081;28;20022;-76
2023/10/28 01:39:15;;;;;;;4.38;2.60;;;6.30;99.90;;;;;;5037228;28;20033;-76
2023/10/28 01:41:42;;;;;;;3.25;2.20;;;6.30;99.90;;;;;;5036873;28;20071;-76
2023/10/28 01:44:08;;;;;;;3.17;1.92;;;6.20;99.90;;;;;;5037593;28;20420;-76
2023/10/28 01:46:33;;;;;;;3.63;2.47;;;6.20;99.90;;;;;;5035616;28;20100;-76
2023/10/28 01:48:59;;;;;;;3.55;2.30;;;6.20;99.90;;;;;;5035554;28;20413;-76
2023/10/28 01:51:25;;;;;;;5.70;2.63;;;6.20;99.90;;;;;;5035491;28;20022;-76
2023/10/28 01:53:51;;;;;;;4.22;2.53;;;6.20;99.90;;;;;;5035565;28;20114;-76
2023/10/28 01:56:17;;;;;;;4.22;2.55;;;6.20;99.90;;;;;;5035843;28;20018;-76
2023/10/28 01:58:43;;;;;;;5.22;2.90;;;6.30;99.90;;;;;;5036604;28;20044;-76
2023/10/28 02:01:09;;;;;;;3.80;2.45;;;6.30;99.90;;;;;;5036492;28;20084;-76
2023/10/28 02:03:34;;;;;;;4.78;2.90;;;6.30;99.90;;;;;;5018773;28;20397;-76
2023/10/28 02:06:00;;;;;;;3.95;2.33;;;6.30;99.90;;;;;;5035233;28;20034;-76
2023/10/28 02:08:26;;;;;;;5.00;3.35;;;6.30;99.90;;;;;;5036409;28;20064;-76
2023/10/28 02:10:51;;;;;;;5.97;3.28;;;6.30;99.90;;;;;;5035411;28;20030;-76
2023/10/28 02:13:17;;;;;;;5.25;3.13;;;6.30;99.90;;;;;;5035226;28;20064;-76
2023/10/28 02:15:44;;;;;;;4.78;2.63;;;6.30;99.90;;;;;;5036600;28;20030;-76
2023/10/28 02:18:10;;;;;;;4.18;2.40;;;6.30;99.90;;;;;;5036236;28;20026;-76
2023/10/28 02:20:36;;;;;;;4.22;2.38;;;6.20;99.90;;;;;;5036041;28;20098;-76
2023/10/28 02:23:02;;;;;;;4.10;2.20;;;6.30;99.90;;;;;;5036303;28;20026;-76
2023/10/28 02:25:28;;;;;;;4.53;2.50;;;6.30;99.90;;;;;;5036359;28;20386;-76
2023/10/28 02:27:54;;;;;;;3.55;2.15;;;6.30;99.90;;;;;;5035845;28;20055;-76
2023/10/28 02:30:19;;;;;;;5.57;2.95;;;6.30;99.90;;;;;;5034728;28;20032;-76
2023/10/28 02:32:45;;;;;;;5.13;3.13;;;6.30;99.90;;;;;;5018269;28;20025;-76
2023/10/28 02:35:11;;;;;;;4.07;2.40;;;6.30;99.90;;;;;;5036057;28;20024;-76
2023/10/28 02:37:39;;;;;;;3.88;2.47;;;6.40;99.90;;;;;;5035646;28;20036;-76
2023/10/28 02:40:08;;;;;;;4.97;2.80;;;6.40;99.90;;;;;;5034701;28;20049;-76
2023/10/28 02:42:34;;;;;;;4.90;2.50;;;6.40;99.90;;;;;;5035688;28;20032;-76
2023/10/28 02:45:00;;;;;;;3.55;2.45;;;6.40;99.90;;;;;;5035784;28;20093;-76
2023/10/28 02:47:26;;;;;;;4.43;2.67;;;6.40;99.90;;;;;;5035639;28;20072;-76
2023/10/28 02:49:51;;;;;;;4.53;2.67;;;6.40;99.90;;;;;;5035661;28;20549;-76
2023/10/28 02:52:17;;;;;;;5.18;2.97;;;6.40;99.90;;;;;;5036747;28;20026;-76
2023/10/28 02:54:43;;;;;;;4.55;2.70;;;6.40;99.90;;;;;;5037512;28;20036;-76
2023/10/28 02:57:10;;;;;;;4.03;2.50;;;6.40;99.90;;;;;;5036022;28;20420;-77
2023/10/28 02:59:35;;;;;;;3.08;2.15;;;6.40;99.90;;;;;;5035232;28;20116;-76
2023/10/28 03:02:01;;;;;;;3.45;2.10;;;6.40;99.90;;;;;;5035344;28;20113;-76
2023/10/28 03:04:27;;;;;;;2.58;1.50;;;6.40;99.90;;;;;;5035281;28;20021;-76
2023/10/28 03:06:52;;;;;;;2.65;1.98;;;6.40;99.90;;;;;;5034218;28;20183;-76
2023/10/28 03:09:18;;;;;;;3.38;2.00;;;6.40;99.90;;;;;;5034429;28;20540;-76
2023/10/28 03:11:45;;;;;;;2.72;1.80;;;6.30;99.90;;;;;;5035137;28;20041;-76
2023/10/28 03:14:11;;;;;;;3.33;1.95;;;6.30;99.90;;;;;;5035608;28;20040;-76
2023/10/28 03:16:38;;;;;;;3.45;2.20;;;6.30;99.90;;;;;;5035328;28;20415;-76
2023/10/28 03:19:07;;;;;;;3.03;1.85;;;6.20;99.90;;;;;;5035205;28;20044;-76
2023/10/28 03:21:33;;;;;;;2.40;1.55;;;6.20;99.90;;;;;;5034337;28;20030;-76
2023/10/28 03:23:58;;;;;;;2.80;1.58;;;6.10;99.90;;;;;;5035011;28;20040;-76
2023/10/28 03:26:24;;;;;;;3.03;2.00;;;6.10;99.90;;;;;;5017205;28;20034;-76
2023/10/28 03:28:50;;;;;;;2.83;1.73;;;6.10;99.90;;;;;;5033764;28;20108;-76
2023/10/28 03:31:15;;;;;;;4.63;2.08;;;6.10;99.90;;;;;;5034687;28;20031;-76
2023/10/28 03:33:42;;;;;;;4.38;2.00;;;6.10;99.90;;;;;;5033506;28;20036;-76
2023/10/28 03:36:11;;;;;;;2.67;1.60;;;6.10;99.90;;;;;;5034614;28;20109;-76
2023/10/28 03:38:37;;;;;;;3.15;1.70;;;6.10;99.90;;;;;;5033680;28;20032;-76
2023/10/28 03:41:10;;;;;;;3.22;1.92;;;6.20;99.90;;;;;;5034404;28;20028;-75
2023/10/28 03:43:37;;;;;;;2.92;2.08;;;6.20;99.90;;;;;;5033256;28;20025;-76
2023/10/28 03:46:03;;;;;;;4.70;1.95;;;6.30;99.90;;;;;;5034761;28;20053;-76
2023/10/28 03:48:30;;;;;;;3.03;1.98;;;6.30;99.90;;;;;;5034777;28;20064;-75
2023/10/28 03:51:00;;;;;;;4.57;2.42;;;6.30;99.90;;;;;;5033937;28;20018;-75
2023/10/28 03:53:26;;;;;;;3.75;2.30;;;6.30;99.90;;;;;;5034637;28;20045;-75
2023/10/28 03:55:52;;;;;;;2.80;2.13;;;6.30;99.90;;;;;;5034402;28;20034;-75
2023/10/28 03:58:18;;;;;;;2.92;1.88;;;6.30;99.90;;;;;;5034671;28;20511;-75
2023/10/28 04:00:43;;;;;;;3.35;2.00;;;6.30;99.90;;;;;;5034931;28;20036;-74
2023/10/28 04:03:09;;;;;;;3.88;1.92;;;6.30;99.90;;;;;;5034666;28;20037;-74
2023/10/28 04:05:35;;;;;;;2.88;1.80;;;6.40;99.90;;;;;;5034378;28;20500;-74
2023/10/28 04:08:01;;;;;;;2.85;1.75;;;6.30;99.90;;;;;;5035232;28;20389;-74
2023/10/28 04:10:28;;;;;;;2.47;1.60;;;6.40;99.90;;;;;;5033024;28;20032;-74
2023/10/28 04:12:53;;;;;;;3.08;1.75;;;6.40;99.90;;;;;;5033987;28;20105;-74
2023/10/28 04:15:20;;;;;;;3.00;1.77;;;6.40;99.90;;;;;;5032967;28;20053;-74
2023/10/28 04:17:45;;;;;;;3.00;1.92;;;6.40;99.90;;;;;;5033943;28;20438;-74
2023/10/28 04:20:11;;;;;;;3.17;2.00;;;6.40;99.90;;;;;;5033743;28;20140;-74
2023/10/28 04:22:37;;;;;;;2.75;1.77;;;6.40;99.90;;;;;;5033764;28;20061;-75
2023/10/28 04:25:05;;;;;;;3.17;2.00;;;6.30;99.90;;;;;;5034016;28;20030;-74
2023/10/28 04:27:31;;;;;;;4.10;2.55;;;6.40;99.90;;;;;;5032737;28;20036;-75
2023/10/28 04:29:57;;;;;;;4.10;2.42;;;6.40;99.90;;;;;;5033771;28;20048;-75
2023/10/28 04:32:24;;;;;;;5.28;2.88;;;6.40;99.90;;;;;;5033935;28;20057;-74
2023/10/28 04:34:52;;;;;;;6.40;3.65;;;6.40;99.90;;;;;;5033653;28;20024;-74
2023/10/28 04:37:18;;;;;;;5.57;3.47;;;6.40;99.90;;;;;;5033795;28;20034;-75
2023/10/28 04:39:44;;;;;;;3.47;2.47;;;6.30;99.90;;;;;;5033441;28;20099;-74
2023/10/28 04:42:09;;;;;;;2.90;2.00;;;6.30;99.90;;;;;;5033734;28;20026;-75
2023/10/28 04:44:35;;;;;;;2.45;1.60;;;6.20;99.90;;;;;;5033741;28;20424;-74
2023/10/28 04:47:01;;;;;;;2.33;1.40;;;6.20;99.90;;;;;;5033985;28;20116;-74
2023/10/28 04:49:30;;;;;;;2.58;1.63;;;6.20;99.90;;;;;;5033313;28;20033;-74
2023/10/28 04:51:56;;;;;;;32.78;17.77;;;6.10;99.90;;;;;;5032501;28;20036;-74
2023/10/28 04:54:22;;;;;;;19.15;10.00;;;6.10;99.90;;;;;;5033977;28;20022;-74
2023/10/28 04:56:51;;;;;;;5.25;3.08;;;6.10;99.90;;;;;;5033425;28;20026;-74
2023/10/28 04:59:16;;;;;;;3.90;2.42;;;5.90;99.90;;;;;;5032143;28;20037;-74
2023/10/28 05:01:42;;;;;;;7.13;4.63;;;5.90;99.90;;;;;;5037586;28;20034;-74
2023/10/28 05:04:11;;;;;;;4.13;2.38;;;5.80;99.90;;;;;;5037262;28;20037;-74
2023/10/28 05:06:37;;;;;;;6.75;3.50;;;5.80;99.90;;;;;;5037819;28;20036;-73
2023/10/28 05:09:03;;;;;;;4.32;2.67;;;5.80;99.90;;;;;;5036054;28;20033;-74
2023/10/28 05:11:29;;;;;;;4.32;2.55;;;5.80;99.90;;;;;;5037318;28;20374;-74
2023/10/28 05:13:55;;;;;;;5.60;2.85;;;5.80;99.90;;;;;;5039280;28;20097;-74
2023/10/28 05:16:23;;;;;;;5.40;3.03;;;5.90;99.90;;;;;;5039029;28;20025;-74
2023/10/28 05:18:49;;;;;;;4.63;2.35;;;5.90;99.90;;;;;;5037111;28;20060;-74
2023/10/28 05:21:15;;;;;;;3.40;2.00;;;5.90;99.90;;;;;;5035899;28;20037;-74
2023/10/28 05:23:41;;;;;;;3.10;1.80;;;5.90;99.90;;;;;;5037350;28;20022;-74
2023/10/28 05:26:07;;;;;;;3.55;2.20;;;5.90;99.90;;;;;;5037065;28;20393;-74
2023/10/28 05:28:32;;;;;;;7.18;4.35;;;5.90;99.90;;;;;;5037932;28;20385;-74
2023/10/28 05:30:58;;;;;;;6.20;4.30;;;5.90;99.90;;;;;;5035640;28;20485;-74
2023/10/28 05:33:24;;;;;;;6.50;4.68;;;5.80;99.90;;;;;;5036982;28;20026;-74
2023/10/28 05:35:51;;;;;;;7.00;2.70;;;5.80;99.90;;;;;;5036895;28;20025;-75
2023/10/28 05:38:17;;;;;;;3.72;2.72;;;5.70;99.90;;;;;;5039931;28;20025;-74
2023/10/28 05:40:43;;;;;;;3.50;2.70;;;5.70;99.90;;;;;;5038872;28;20030;-74
2023/10/28 05:43:09;;;;;;;3.97;2.53;;;5.60;99.90;;;;;;5037528;28;20056;-75
2023/10/28 05:45:35;;;;;;;3.90;2.30;;;5.60;99.90;;;;;;5037466;28;20041;-75
2023/10/28 05:48:00;;;;;;;4.00;1.70;;;5.60;99.90;;;;;;5036908;28;20037;-75
2023/10/28 05:50:27;;;;;;;1.77;1.15;;;5.60;99.90;;;;;;5036542;28;20026;-75
2023/10/28 05:52:53;;;;;;;3.45;1.88;;;5.60;99.90;;;;;;5036528;28;20025;-75
2023/10/28 05:55:19;;;;;;;2.53;1.33;;;5.60;99.90;;;;;;5037079;28;20112;-75
2023/10/28 05:57:44;;;;;;;2.00;1.10;;;5.50;99.90;;;;;;5036448;28;20120;-75
2023/10/28 06:00:10;;;;;;;1.83;1.05;;;5.50;99.90;;;;;;5036404;28;20028;-75
2023/10/28 06:02:39;;;;;;;4.38;3.10;;;5.50;99.90;;;;;;5036386;28;20029;-75
2023/10/28 06:05:06;;;;;;;4.70;3.50;;;5.60;99.90;;;;;;5036357;28;20075;-74
2023/10/28 06:07:32;;;;;;;7.57;4.13;;;5.60;99.90;;;;;;5036449;28;20041;-75
2023/10/28 06:09:58;;;;;;;5.43;3.60;;;5.60;99.90;;;;;;5036324;28;20044;-75
2023/10/28 06:12:27;;;;;;;5.18;3.22;;;5.60;99.90;;;;;;5035873;28;20017;-75
2023/10/28 06:14:53;;;;;;;4.35;3.20;;;5.60;99.90;;;;;;5034916;28;20022;-75
2023/10/28 06:17:20;;;;;;;5.57;2.88;;;5.60;99.90;;;;;;5036088;28;20034;-75
2023/10/28 06:19:46;;;;;;;4.90;2.75;;;5.60;99.90;;;;;;5036084;28;20104;-75
2023/10/28 06:22:12;;;;;;;5.10;2.55;;;5.50;99.90;;;;;;5036784;28;20029;-75
2023/10/28 06:24:38;;;;;;;3.15;2.08;;;5.50;99.90;;;;;;5036079;28;20030;-74
2023/10/28 06:27:05;;;;;;;5.57;2.95;;;5.40;99.90;;;;;;5035977;28;20079;-75
2023/10/28 06:29:31;;;;;;;7.13;4.53;;;5.40;99.90;;;;;;5036002;28;20030;-74
2023/10/28 06:31:59;;;;;;;4.53;2.70;;;5.40;99.90;;;;;;5036168;28;20048;-75
2023/10/28 06:34:28;;;;;;;2.92;1.92;;;5.40;99.90;;;;;;5036116;28;20025;-75
2023/10/28 06:36:55;;;;;;;5.65;2.30;;;5.40;99.90;;;;;;5034648;28;20030;-75
2023/10/28 06:39:21;;;;;;;4.93;3.13;;;5.40;99.90;;;;;;5035689;28;20548;-75
2023/10/28 06:41:51;;;;;;;4.10;2.33;;;5.40;99.90;;;;;;5034788;28;20453;-75
2023/10/28 06:44:18;;;;;;;3.42;2.05;;;5.50;99.90;;;;;;5035729;28;20026;-75
2023/10/28 06:46:44;;;;;;;3.92;2.40;;;5.60;99.90;;;;;;5035588;28;20025;-75
2023/10/28 06:49:10;;;;;;;3.05;1.90;;;5.60;99.90;;;;;;5034272;28;20079;-75
2023/10/28 06:51:36;;;;;;;3.35;2.15;;;5.60;99.90;;;;;;5034402;28;20072;-75
2023/10/28 06:54:03;;;;;;;4.00;2.00;;;5.70;99.90;;;;;;5035402;28;20021;-75
2023/10/28 06:56:29;;;;;;;3.83;2.20;;;5.70;99.90;;;;;;5035419;28;20021;-75
2023/10/28 06:58:55;;;;;;;4.18;2.10;;;5.80;99.90;;;;;;5035284;28;20034;-75
2023/10/28 07:01:20;;;;;;;3.95;2.00;;;5.80;99.90;;;;;;5035296;28;20061;-75
2023/10/28 07:03:47;;;;;;;2.42;1.60;;;5.80;99.90;;;;;;5035522;28;20116;-74
2023/10/28 07:06:16;;;;;;;2.63;1.60;;;5.90;99.90;;;;;;5035330;28;20172;-75
2023/10/28 07:08:42;;;;;;;2.85;1.75;;;5.90;99.90;;;;;;5034095;28;20121;-74
2023/10/28 07:11:07;;;;;;;4.45;1.80;;;6.00;99.90;;;;;;5035242;28;20450;-75
2023/10/28 07:13:33;;;;;;;2.15;1.23;;;6.00;99.90;;;;;;5035037;28;20057;-74
2023/10/28 07:16:05;;;;;;;2.78;1.70;;;6.10;99.90;;;;;;5035053;28;20060;-75
2023/10/28 07:18:32;;;;;;;3.10;2.05;;;6.10;99.90;;;;;;5035655;28;20033;-75
2023/10/28 07:20:58;;;;;;;3.78;1.70;;;6.10;99.90;;;;;;5035770;28;20100;-75
2023/10/28 07:23:26;;;;;;;3.33;2.20;;;6.10;99.90;;;;;;5035231;28;20036;-75
2023/10/28 07:25:56;;;;;;;4.35;2.25;;;6.20;99.90;;;;;;5034829;28;20033;-75
2023/10/28 07:28:21;;;;;;;4.35;2.70;;;6.20;99.90;;;;;;5033786;28;20030;-75
2023/10/28 07:30:50;;;;;;;5.05;3.08;;;6.30;99.90;;;;;;5034772;28;20530;-75
2023/10/28 07:33:17;;;;;;;5.43;2.70;;;6.30;99.90;;;;;;5033667;28;20129;-75
2023/10/28 07:35:44;;;;;;;5.95;3.17;;;6.30;99.90;;;;;;5034968;28;20486;-74
2023/10/28 07:38:12;;;;;;;5.50;3.08;;;6.30;99.90;;;;;;5034607;28;20504;-74
2023/10/28 07:40:38;;;;;;;4.45;3.20;;;6.40;99.90;;;;;;5034558;28;20060;-75
2023/10/28 07:43:05;;;;;;;5.72;3.70;;;6.40;99.90;;;;;;5033214;28;20036;-75
2023/10/28 07:45:31;;;;;;;5.53;3.58;;;6.40;99.90;;;;;;5034640;28;20497;-75
2023/10/28 07:47:56;;;;;;;4.50;3.28;;;6.50;99.90;;;;;;5034293;28;20103;-75
2023/10/28 07:50:22;;;;;;;4.07;2.78;;;6.50;99.90;;;;;;5034461;28;20482;-75
2023/10/28 07:52:48;;;;;;;5.80;3.45;;;6.60;99.90;;;;;;5021970;28;20033;-76
2023/10/28 07:55:13;;;;;;;4.78;3.55;;;6.60;99.90;;;;;;5013261;28;20121;-74
2023/10/28 07:57:39;;;;;;;4.50;3.17;;;6.80;99.90;;;;;;5014637;28;20030;-75
2023/10/28 08:00:05;;;;;;;5.53;3.33;;;6.80;99.90;;;;;;5022299;28;20104;-75
2023/10/28 08:02:31;;;;;;;5.60;3.55;;;6.90;99.90;;;;;;5029434;28;20025;-74
2023/10/28 08:05:00;;;;;;;5.95;3.70;;;7.00;99.90;;;;;;5022913;28;20026;-73
2023/10/28 08:07:25;;;;;;;6.72;4.10;;;7.10;99.90;;;;;;5034224;28;20096;-74
2023/10/28 08:09:51;;;;;;;5.53;3.63;;;7.20;99.90;;;;;;5049261;28;20029;-73
2023/10/28 08:12:17;;;;;;;5.43;3.28;;;7.30;99.90;;;;;;5036040;28;20037;-73
2023/10/28 08:14:46;;;;;;;5.18;3.08;;;7.40;99.90;;;;;;5034021;28;20469;-74
2023/10/28 08:17:12;;;;;;;4.30;2.75;;;7.50;99.90;;;;;;5024510;28;20018;-73
2023/10/28 08:19:38;;;;;;;4.10;3.00;;;7.50;99.90;;;;;;5024755;28;20044;-73
2023/10/28 08:22:04;;;;;;;3.55;2.42;;;7.60;99.90;;;;;;5020810;28;20037;-73
2023/10/28 08:24:29;;;;;;;2.88;2.08;;;7.60;99.90;;;;;;5022929;28;20034;-73
2023/10/28 08:26:58;;;;;;;3.08;1.90;;;7.70;99.90;;;;;;5018332;28;20451;-73
2023/10/28 08:29:24;;;;;;;4.43;2.30;;;7.80;99.90;;;;;;5019104;28;20441;-73
2023/10/28 08:31:50;;;;;;;6.00;2.58;;;7.80;99.90;;;;;;5024479;28;20029;-73
2023/10/28 08:34:16;;;;;;;3.42;2.20;;;7.90;99.90;;;;;;5019053;28;20058;-73
2023/10/28 08:36:42;;;;;;;3.53;2.38;;;8.00;99.90;;;;;;5026642;28;20116;-73
2023/10/28 08:39:08;;;;;;;4.20;2.45;;;8.10;99.90;;;;;;5027061;28;20077;-73
2023/10/28 08:41:35;;;;;;;3.47;2.30;;;8.20;99.90;;;;;;5019372;28;20041;-73
2023/10/28 08:44:05;;;;;;;2.92;2.05;;;8.20;99.90;;;;;;5019387;28;20038;-73
2023/10/28 08:46:32;;;;;;;2.83;2.03;;;8.30;99.90;;;;;;5023534;28;20029;-73
2023/10/28 08:49:00;;;;;;;2.53;1.83;;;8.40;99.90;;;;;;5030157;28;20134;-73
2023/10/28 08:51:26;;;;;;;2.58;1.70;;;8.40;99.90;;;;;;5025581;28;20037;-73
2023/10/28 08:53:56;;;;;;;3.03;2.13;;;8.50;99.90;;;;;;5018157;28;20017;-73
2023/10/28 08:56:25;;;;;;;4.03;2.40;;;8.60;99.90;;;;;;5025088;28;20018;-72
2023/10/28 08:58:52;;;;;;;3.15;2.20;;;8.70;99.90;;;;;;5025471;28;20125;-73
2023/10/28 09:01:28;;;;;;;5.35;2.17;;;8.80;99.90;;;;;;5021134;28;20029;-73
2023/10/28 09:04:00;;;;;;;4.95;2.78;;;8.90;99.90;;;;;;5020454;28;20036;-73
2023/10/28 09:06:28;;;;;;;3.70;2.63;;;9.10;99.90;;;;;;5019021;28;20124;-73
2023/10/28 09:08:55;;;;;;;2.92;2.13;;;9.20;99.90;;;;;;5017542;28;20510;-73
2023/10/28 09:11:22;;;;;;;4.85;3.35;;;9.30;99.90;;;;;;5028102;28;20029;-73
2023/10/28 09:13:48;;;;;;;3.60;2.90;;;9.40;99.90;;;;;;5033157;28;20104;-73
2023/10/28 09:16:16;;;;;;;3.60;2.20;;;9.50;99.90;;;;;;5032999;28;20473;-73
2023/10/28 09:18:43;;;;;;;4.80;2.30;;;9.50;99.90;;;;;;5024110;28;20034;-73
2023/10/28 09:21:10;;;;;;;2.53;1.80;;;9.50;99.90;;;;;;5018260;28;20645;-73
2023/10/28 09:23:38;;;;;;;2.92;2.08;;;9.60;99.90;;;;;;5019004;28;20041;-73
2023/10/28 09:26:08;;;;;;;2.92;1.73;;;9.60;99.90;;;;;;5025439;28;20080;-73
2023/10/28 09:28:34;;;;;;;2.65;1.85;;;9.70;99.90;;;;;;5022718;28;20122;-73
2023/10/28 09:31:00;;;;;;;4.40;1.75;;;9.70;99.90;;;;;;5018057;28;20057;-73
2023/10/28 09:33:30;;;;;;;2.63;1.67;;;9.80;99.90;;;;;;5018541;28;20084;-73
2023/10/28 09:35:56;;;;;;;2.67;1.55;;;9.90;99.90;;;;;;5024429;28;20567;-73
2023/10/28 09:38:25;;;;;;;2.78;1.58;;;10.00;99.90;;;;;;5018667;28;20393;-73
2023/10/28 09:40:52;;;;;;;3.05;1.67;;;10.10;99.90;;;;;;5018123;28;20499;-72
2023/10/28 09:43:19;;;;;;;4.20;2.70;;;10.20;99.90;;;;;;5017429;28;20029;-73
2023/10/28 09:45:51;;;;;;;3.50;2.00;;;10.30;99.90;;;;;;5017472;28;20095;-72
2023/10/28 09:48:18;;;;;;;2.67;1.50;;;10.40;99.90;;;;;;5019699;28;20104;-73
2023/10/28 09:50:49;;;;;;;2.50;1.40;;;10.40;99.90;;;;;;5023842;28;20049;-73
2023/10/28 09:53:17;;;;;;;2.40;1.25;;;10.50;99.90;;;;;;5024498;28;20071;-73
2023/10/28 09:55:44;;;;;;;1.85;1.15;;;10.60;99.90;;;;;;5034037;28;20033;-73
2023/10/28 09:58:21;;;;;;;1.95;1.10;;;10.70;99.90;;;;;;5027210;28;20033;-74
2023/10/28 10:00:50;;;;;;;1.95;1.10;;;10.70;99.90;;;;;;5017372;28;20057;-74
2023/10/28 10:03:25;;;;;;;1.58;0.70;;;10.80;99.90;;;;;;5030933;28;20049;-73
2023/10/28 10:05:53;;;;;;;1.10;0.73;;;10.80;99.90;;;;;;5022882;28;20037;-73
2023/10/28 10:08:21;;;;;;;2.10;0.95;;;10.90;99.90;;;;;;5021708;28;20032;-74
2023/10/28 10:10:49;;;;;;;2.08;1.08;;;11.00;99.90;;;;;;5026874;28;20387;-73
2023/10/28 10:13:15;;;;;;;1.40;0.90;;;11.10;99.90;;;;;;5035033;28;20038;-73
2023/10/28 10:15:55;;;;;;;2.33;1.20;;;11.10;99.90;;;;;;5025063;28;20041;-74
2023/10/28 10:18:46;;;;;;;1.88;1.00;;;11.20;99.90;;;;;;5018381;28;20029;-73
2023/10/28 10:21:14;;;;;;;2.00;1.00;;;11.30;99.90;;;;;;5030129;28;20563;-73
2023/10/28 10:23:45;;;;;;;2.13;1.00;;;11.30;99.90;;;;;;5035524;28;20048;-73
2023/10/28 10:26:25;;;;;;;1.27;0.80;;;11.30;99.90;;;;;;5025098;28;20116;-73
2023/10/28 10:28:55;;;;;;;1.50;0.90;;;11.40;99.90;;;;;;5018604;28;20433;-74
2023/10/28 10:31:30;;;;;;;1.70;0.80;;;11.40;99.90;;;;;;5026038;28;20022;-73
2023/10/28 10:34:08;;;;;;;1.40;0.90;;;11.50;99.90;;;;;;5014638;28;20490;-74
2023/10/28 10:36:41;;;;;;;1.98;0.80;;;11.70;99.90;;;;;;5013170;28;20030;-74
2023/10/28 10:39:14;;;;;;;1.83;0.50;;;11.80;99.90;;;;;;5015019;28;20026;-73
2023/10/28 10:41:41;;;;;;;1.10;0.70;;;11.80;99.90;;;;;;5015895;28;20032;-73
2023/10/28 10:44:36;;;;;;;0.95;0.57;;;11.80;99.90;;;;;;5015924;28;20037;-73
2023/10/28 10:47:03;;;;;;;2.22;0.80;;;11.90;99.90;;;;;;5016418;28;20087;-74
2023/10/28 10:49:31;;;;;;;2.80;1.00;;;11.90;99.90;;;;;;5015595;28;20030;-74
2023/10/28 10:52:03;;;;;;;2.08;1.10;;;12.00;99.90;;;;;;5015739;28;20075;-74
2023/10/28 10:54:36;;;;;;;3.10;1.10;;;12.10;99.90;;;;;;5014225;28;20030;-73
2023/10/28 10:57:03;;;;;;;2.65;1.00;;;12.20;99.90;;;;;;5016250;28;20058;-73
2023/10/28 10:59:33;;;;;;;1.60;0.82;;;12.20;99.90;;;;;;5015276;28;20041;-74
2023/10/28 11:02:00;;;;;;;1.15;0.95;;;12.30;99.90;;;;;;5015856;28;20030;-74
2023/10/28 11:04:27;;;;;;;1.83;0.65;;;12.40;99.90;;;;;;5015969;28;20115;-73
2023/10/28 11:06:54;;;;;;;1.90;0.90;;;12.40;99.90;;;;;;5015531;28;20022;-73
2023/10/28 11:09:21;;;;;;;1.45;0.82;;;12.50;99.90;;;;;;5015257;28;20041;-73
2023/10/28 11:11:47;;;;;;;1.02;0.70;;;12.50;99.90;;;;;;5015253;28;20034;-73
2023/10/28 11:14:13;;;;;;;1.60;0.90;;;12.50;99.90;;;;;;5015357;28;20068;-73
2023/10/28 11:16:41;;;;;;;1.50;0.90;;;12.50;99.90;;;;;;5015239;28;20430;-74
2023/10/28 11:19:08;;;;;;;1.05;0.60;;;12.60;99.90;;;;;;5015222;28;20026;-73
2023/10/28 11:21:35;;;;;;;2.42;0.60;;;12.60;99.90;;;;;;5013955;28;20041;-73
2023/10/28 11:24:01;;;;;;;2.13;0.63;;;12.70;99.90;;;;;;5015077;28;20041;-73
2023/10/28 11:26:27;;;;;;;0.98;0.63;;;12.70;99.90;;;;;;5015336;28;20034;-73
2023/10/28 11:28:58;;;;;;;1.25;0.55;;;12.80;99.90;;;;;;5014950;28;20022;-73
2023/10/28 11:31:25;;;;;;;1.63;0.88;;;12.90;99.90;;;;;;5015362;28;20058;-73
2023/10/28 11:33:50;;;;;;;1.10;0.70;;;12.90;99.90;;;;;;5015021;28;20068;-73
2023/10/28 11:36:16;;;;;;;1.83;0.82;;;13.00;99.90;;;;;;5015293;28;20058;-73
2023/10/28 11:38:44;;;;;;;1.23;0.70;;;13.00;99.90;;;;;;5014960;28;20449;-73
2023/10/28 11:41:10;;;;;;;1.08;0.60;;;13.00;99.90;;;;;;5014829;28;20021;-73
2023/10/28 11:43:36;;;;;;;1.05;0.50;;;13.10;99.90;;;;;;5014755;28;20018;-73
2023/10/28 11:46:03;;;;;;;0.75;0.60;;;13.10;99.90;;;;;;5014768;28;20412;-73
2023/10/28 11:48:33;;;;;;;1.08;0.60;;;13.20;99.90;;;;;;5014641;28;20161;-73
2023/10/28 11:50:59;;;;;;;0.95;0.52;;;13.30;99.90;;;;;;5014584;28;20017;-73
2023/10/28 11:53:26;;;;;;;1.73;0.65;;;13.40;99.90;;;;;;5014928;28;20490;-73
2023/10/28 11:55:52;;;;;;;1.23;0.63;;;13.40;99.90;;;;;;5014606;28;20037;-73
2023/10/28 11:58:18;;;;;;;0.93;0.50;;;13.50;99.90;;;;;;5014380;28;20033;-73
2023/10/28 12:00:44;;;;;;;0.82;0.50;;;13.50;99.90;;;;;;5013991;28;20417;-73
2023/10/28 12:03:13;;;;;;;1.38;0.50;;;13.70;99.90;;;;;;5013212;28;20037;-73
2023/10/28 12:05:39;;;;;;;1.13;0.50;;;13.70;99.90;;;;;;5015218;28;20371;-73
2023/10/28 12:08:05;;;;;;;0.70;0.45;;;13.80;99.90;;;;;;5014436;28;20045;-73
2023/10/28 12:10:34;;;;;;;0.98;0.47;;;13.90;99.90;;;;;;5014445;28;20109;-73
2023/10/28 12:13:00;;;;;;;2.25;0.80;;;13.90;99.90;;;;;;5015064;28;20030;-72
2023/10/28 12:15:26;;;;;;;1.45;0.70;;;13.90;99.90;;;;;;5017492;28;20026;-72
2023/10/28 12:17:53;;;;;;;1.08;0.60;;;14.00;99.90;;;;;;5016314;28;20022;-72
2023/10/28 12:20:19;;;;;;;0.73;0.50;;;14.00;99.90;;;;;;5014183;28;20033;-73
2023/10/28 12:22:45;;;;;;;1.30;0.63;;;14.10;99.90;;;;;;5014257;28;20022;-73
2023/10/28 12:25:13;;;;;;;1.55;0.63;;;14.20;99.90;;;;;;5014673;28;20026;-74
2023/10/28 12:27:39;;;;;;;0.95;0.50;;;14.30;99.90;;;;;;5014110;28;20112;-75
2023/10/28 12:30:08;;;;;;;1.13;0.50;;;14.40;99.90;;;;;;5013905;28;20109;-75
2023/10/28 12:32:33;;;;;;;1.10;0.60;;;14.40;99.90;;;;;;5013930;28;20497;-75
2023/10/28 12:34:59;;;;;;;1.25;0.80;;;14.50;99.90;;;;;;5014034;28;20034;-75
2023/10/28 12:37:28;;;;;;;1.13;0.65;;;14.50;99.90;;;;;;5012760;28;20419;-75
2023/10/28 12:39:54;;;;;;;2.05;0.60;;;14.60;99.90;;;;;;5014050;28;20026;-75
2023/10/28 12:42:20;;;;;;;1.80;0.70;;;14.70;99.90;;;;;;5014364;28;20059;-75
2023/10/28 12:44:45;;;;;;;1.90;0.65;;;14.80;99.90;;;;;;5013869;28;20487;-75
2023/10/28 12:47:11;;;;;;;1.13;0.63;;;14.70;99.90;;;;;;5014069;28;20117;-75
2023/10/28 12:49:37;;;;;;;0.73;0.60;;;14.70;99.90;;;;;;5013704;28;20022;-74
2023/10/28 12:52:03;;;;;;;1.45;0.82;;;14.80;99.90;;;;;;5013811;28;20454;-74
2023/10/28 12:54:32;;;;;;;1.25;0.70;;;14.90;99.90;;;;;;5014280;28;20026;-74